createdAt,value
2019-03-29T00:05:39.663Z,15.90
2019-03-29T00:11:38.810Z,16.90
2019-03-29T00:14:09.410Z,16.30
2019-03-29T00:16:41.165Z,16.73
2019-03-29T00:19:13.950Z,15.93
2019-03-29T00:21:44.863Z,16.30
2019-03-29T00:28:07.496Z,15.70
2019-03-29T00:34:30.190Z,16.57
2019-03-29T00:36:59.769Z,17.00
2019-03-29T00:39:30.046Z,15.90
2019-03-29T00:42:02.581Z,16.20
2019-03-29T00:48:01.224Z,15.23
2019-03-29T00:54:54.839Z,16.63
2019-03-29T01:00:53.798Z,16.70
2019-03-29T01:03:23.880Z,16.73
2019-03-29T01:05:53.405Z,15.63
2019-03-29T01:08:22.925Z,16.60
2019-03-29T01:10:53.699Z,17.10
2019-03-29T01:13:24.228Z,16.03
2019-03-29T01:15:54.780Z,15.70
2019-03-29T01:18:24.690Z,15.53
2019-03-29T01:21:00.136Z,16.37
2019-03-29T01:26:58.843Z,16.83
2019-03-29T01:32:59.021Z,14.87
2019-03-29T01:35:28.720Z,15.60
2019-03-29T01:37:58.709Z,15.07
2019-03-29T01:41:10.568Z,14.90
2019-03-29T01:47:30.315Z,14.70
2019-03-29T01:54:22.301Z,15.17
2019-03-29T02:04:05.805Z,15.10
2019-03-29T02:10:17.982Z,14.23
2019-03-29T02:19:21.474Z,14.83
2019-03-29T02:21:50.856Z,15.47
2019-03-29T02:24:23.272Z,15.70
2019-03-29T03:07:56.056Z,12.73
2019-03-29T03:46:46.647Z,10.20
2019-03-29T03:57:25.632Z,10.60
2019-03-29T04:07:57.395Z,10.73
2019-03-29T04:11:43.214Z,10.17
2019-03-29T04:14:03.991Z,11.33
2019-03-29T04:24:20.240Z,12.67
2019-03-29T05:53:55.140Z,18.80
2019-03-29T05:57:03.496Z,19.37
2019-03-29T06:00:24.479Z,20.13
2019-03-29T06:03:33.971Z,19.67
2019-03-29T06:26:53.780Z,19.50
2019-03-29T06:29:35.056Z,19.87
2019-03-29T06:43:47.648Z,18.63
2019-03-29T06:46:17.282Z,19.20
2019-03-29T06:49:41.807Z,20.30
2019-03-29T06:52:14.256Z,21.60
2019-03-29T06:54:54.915Z,21.80
2019-03-29T06:58:49.277Z,21.50
2019-03-29T07:05:10.624Z,21.90
2019-03-29T07:07:40.545Z,21.30
2019-03-29T07:10:11.560Z,22.77
2019-03-29T07:12:41.171Z,20.27
2019-03-29T07:15:11.470Z,20.60
2019-03-29T07:17:41.021Z,19.93
2019-03-29T07:20:10.501Z,19.57
2019-03-29T07:22:40.143Z,21.27
2019-03-29T07:25:10.942Z,19.53
2019-03-29T07:27:46.780Z,18.33
2019-03-29T07:30:12.106Z,18.73
2019-03-29T07:32:42.020Z,18.60
2019-03-29T07:35:11.882Z,17.93
2019-03-29T07:37:41.497Z,17.80
2019-03-29T07:40:14.050Z,18.33
2019-03-29T07:42:50.786Z,16.87
2019-03-29T07:45:20.389Z,17.67
2019-03-29T07:47:54.611Z,17.53
2019-03-29T07:50:28.939Z,18.40
2019-03-29T07:52:58.454Z,17.40
2019-03-29T07:55:27.988Z,18.73
2019-03-29T07:57:57.815Z,18.13
2019-03-29T08:00:27.303Z,18.70
2019-03-29T08:02:56.880Z,20.80
2019-03-29T08:05:26.180Z,20.83
2019-03-29T08:07:55.893Z,20.73
2019-03-29T08:10:30.842Z,19.77
2019-03-29T08:12:56.665Z,18.87
2019-03-29T08:15:25.932Z,18.43
2019-03-29T08:17:55.310Z,17.97
2019-03-29T08:20:40.258Z,16.40
2019-03-29T08:22:56.083Z,17.10
2019-03-29T08:25:25.421Z,15.83
2019-03-29T08:27:54.940Z,16.20
2019-03-29T08:30:24.448Z,16.47
2019-03-29T08:32:53.987Z,15.67
2019-03-29T08:35:23.680Z,15.40
2019-03-29T08:37:53.078Z,14.93
2019-03-29T08:40:22.806Z,15.30
2019-03-29T08:42:52.371Z,14.23
2019-03-29T08:45:21.715Z,13.50
2019-03-29T08:47:51.015Z,14.20
2019-03-29T08:50:20.278Z,14.10
2019-03-29T08:52:49.781Z,14.33
2019-03-29T08:55:19.328Z,14.40
2019-03-29T08:57:51.932Z,13.27
2019-03-29T09:00:32.027Z,13.97
2019-03-29T09:03:01.857Z,14.00
2019-03-29T09:05:31.266Z,15.37
2019-03-29T09:08:01.585Z,13.67
2019-03-29T09:10:31.331Z,13.33
2019-03-29T09:13:04.220Z,14.67
2019-03-29T09:15:32.504Z,13.50
2019-03-29T09:18:02.019Z,13.97
2019-03-29T09:20:34.507Z,14.57
2019-03-29T09:23:02.971Z,13.90
2019-03-29T09:25:32.938Z,15.30
2019-03-29T09:28:02.255Z,15.33
2019-03-29T09:30:31.636Z,14.13
2019-03-29T09:33:01.042Z,14.77
2019-03-29T09:35:30.732Z,15.33
2019-03-29T09:38:00.050Z,13.93
2019-03-29T09:40:29.573Z,16.67
2019-03-29T09:43:07.259Z,15.90
2019-03-29T09:45:30.127Z,15.03
2019-03-29T09:47:59.723Z,15.80
2019-03-29T09:50:29.359Z,15.97
2019-03-29T09:53:01.143Z,15.90
2019-03-29T09:55:30.746Z,16.13
2019-03-29T09:58:02.438Z,15.80
2019-03-29T10:00:32.026Z,16.13
2019-03-29T10:03:01.371Z,16.17
2019-03-29T10:05:31.735Z,16.67
2019-03-29T10:08:02.087Z,16.67
2019-03-29T10:10:34.358Z,17.07
2019-03-29T10:13:03.322Z,15.83
2019-03-29T10:15:32.613Z,16.87
2019-03-29T10:18:02.027Z,16.43
2019-03-29T10:20:31.745Z,15.80
2019-03-29T10:23:01.003Z,17.20
2019-03-29T10:25:30.533Z,15.63
2019-03-29T10:28:01.008Z,17.13
2019-03-29T10:30:38.851Z,16.93
2019-03-29T10:33:08.430Z,17.27
2019-03-29T10:35:50.894Z,15.90
2019-03-29T10:38:09.308Z,16.40
2019-03-29T10:40:38.660Z,17.47
2019-03-29T10:43:08.082Z,17.53
2019-03-29T10:45:40.280Z,16.23
2019-03-29T10:48:09.633Z,15.70
2019-03-29T10:50:40.601Z,15.83
2019-03-29T10:53:10.246Z,16.27
2019-03-29T10:55:39.524Z,16.43
2019-03-29T10:58:09.827Z,16.87
2019-03-29T11:00:40.939Z,16.03
2019-03-29T11:03:10.399Z,16.87
2019-03-29T11:05:39.734Z,17.40
2019-03-29T11:08:11.619Z,16.73
2019-03-29T11:10:40.734Z,17.03
2019-03-29T11:13:13.675Z,17.60
2019-03-29T11:15:41.847Z,17.53
2019-03-29T11:18:11.450Z,17.43
2019-03-29T11:20:41.279Z,16.53
2019-03-29T11:23:10.631Z,16.57
2019-03-29T11:25:40.245Z,17.57
2019-03-29T11:28:09.940Z,16.77
2019-03-29T11:30:42.414Z,16.73
2019-03-29T11:33:10.313Z,16.37
2019-03-29T11:35:39.826Z,16.37
2019-03-29T11:38:10.584Z,16.07
2019-03-29T11:40:39.890Z,15.93
2019-03-29T11:43:09.249Z,16.47
2019-03-29T11:45:38.857Z,15.97
2019-03-29T11:48:09.579Z,17.53
2019-03-29T11:50:39.456Z,16.93
2019-03-29T11:53:09.016Z,18.13
2019-03-29T11:55:39.360Z,16.90
2019-03-29T11:58:08.939Z,16.20
2019-03-29T12:00:39.575Z,16.07
2019-03-29T12:03:09.866Z,16.80
2019-03-29T12:05:39.368Z,16.70
2019-03-29T12:08:09.077Z,17.30
2019-03-29T12:10:38.715Z,18.03
2019-03-29T12:13:09.714Z,17.90
2019-03-29T12:15:39.353Z,17.23
2019-03-29T12:18:08.982Z,15.90
2019-03-29T12:20:38.862Z,17.37
2019-03-29T12:23:08.567Z,16.57
2019-03-29T12:25:38.029Z,17.53
2019-03-29T12:28:08.551Z,17.20
2019-03-29T12:30:39.349Z,16.27
2019-03-29T12:33:08.870Z,17.03
2019-03-29T12:35:38.388Z,17.07
2019-03-29T12:38:09.872Z,17.50
2019-03-29T12:40:39.368Z,17.30
2019-03-29T12:43:12.283Z,17.80
2019-03-29T12:45:40.148Z,18.63
2019-03-29T12:48:09.395Z,17.20
2019-03-29T12:50:38.972Z,18.43
2019-03-29T12:53:08.485Z,18.43
2019-03-29T12:55:38.099Z,17.50
2019-03-29T12:58:07.673Z,17.63
2019-03-29T13:00:38.832Z,17.50
2019-03-29T13:03:08.544Z,17.90
2019-03-29T13:05:37.837Z,18.27
2019-03-29T13:08:07.370Z,16.97
2019-03-29T13:10:36.760Z,18.30
2019-03-29T13:13:06.451Z,18.17
2019-03-29T13:15:36.767Z,17.80
2019-03-29T13:18:06.584Z,18.43
2019-03-29T13:20:36.649Z,17.80
2019-03-29T13:23:13.570Z,19.07
2019-03-29T13:25:41.679Z,18.97
2019-03-29T13:28:10.947Z,18.07
2019-03-29T13:30:40.532Z,18.33
2019-03-29T13:33:10.662Z,16.73
2019-03-29T13:35:40.151Z,17.97
2019-03-29T13:38:09.676Z,17.67
2019-03-29T13:40:39.235Z,17.50
2019-03-29T13:43:08.864Z,17.57
2019-03-29T13:45:40.955Z,17.63
2019-03-29T13:48:10.632Z,17.73
2019-03-29T13:50:42.644Z,16.77
2019-03-29T13:53:12.268Z,17.63
2019-03-29T13:55:41.528Z,18.63
2019-03-29T13:58:11.115Z,18.17
2019-03-29T14:00:40.614Z,18.30
2019-03-29T14:03:10.145Z,19.13
2019-03-29T14:05:39.671Z,18.50
2019-03-29T14:08:09.176Z,17.57
2019-03-29T14:10:40.014Z,17.97
2019-03-29T14:13:09.494Z,17.27
2019-03-29T14:15:38.800Z,18.00
2019-03-29T14:18:08.332Z,18.00
2019-03-29T14:20:37.981Z,17.73
2019-03-29T14:23:07.510Z,18.73
2019-03-29T14:25:46.306Z,18.90
2019-03-29T14:28:15.652Z,18.03
2019-03-29T14:30:45.209Z,18.20
2019-03-29T14:33:14.503Z,19.07
2019-03-29T14:35:43.847Z,19.13
2019-03-29T14:38:13.515Z,18.47
2019-03-29T14:40:43.063Z,18.07
2019-03-29T14:43:12.543Z,16.90
2019-03-29T14:45:44.706Z,19.00
2019-03-29T14:48:14.245Z,19.50
2019-03-29T14:50:43.814Z,18.13
2019-03-29T14:53:13.388Z,18.60
2019-03-29T14:55:42.928Z,19.70
2019-03-29T14:58:12.245Z,18.37
2019-03-29T15:00:43.607Z,19.20
2019-03-29T15:03:16.454Z,17.97
2019-03-29T15:05:47.731Z,18.10
2019-03-29T15:08:20.328Z,19.03
2019-03-29T15:10:49.642Z,18.57
2019-03-29T15:13:20.764Z,19.20
2019-03-29T15:15:53.379Z,19.47
2019-03-29T15:18:21.312Z,20.87
2019-03-29T15:20:53.777Z,20.80
2019-03-29T15:23:22.051Z,20.27
2019-03-29T15:25:52.487Z,20.33
2019-03-29T15:28:21.988Z,20.00
2019-03-29T15:30:52.551Z,20.33
2019-03-29T15:33:22.189Z,20.87
2019-03-29T15:35:51.727Z,22.70
2019-03-29T15:38:21.082Z,20.47
2019-03-29T15:40:50.561Z,20.60
2019-03-29T15:43:20.630Z,19.93
2019-03-29T15:45:50.200Z,21.20
2019-03-29T15:48:19.463Z,19.70
2019-03-29T15:50:49.143Z,30.97
2019-03-29T15:53:18.681Z,28.37
2019-03-29T15:55:47.948Z,26.47
2019-03-29T15:58:26.280Z,21.87
2019-03-29T16:00:55.789Z,24.97
2019-03-29T16:03:25.144Z,26.57
2019-03-29T16:05:56.333Z,21.63
2019-03-29T16:08:25.856Z,22.60
2019-03-29T16:10:58.195Z,21.17
2019-03-29T16:13:27.814Z,21.83
2019-03-29T16:16:00.139Z,22.03
2019-03-29T16:18:29.651Z,22.33
2019-03-29T16:20:59.194Z,22.87
2019-03-29T16:23:28.814Z,20.43
2019-03-29T16:25:58.612Z,20.57
2019-03-29T16:28:28.401Z,21.73
2019-03-29T16:30:58.085Z,20.97
2019-03-29T16:33:27.591Z,21.87
2019-03-29T16:35:56.881Z,22.73
2019-03-29T16:38:26.427Z,22.07
2019-03-29T16:40:56.051Z,22.13
2019-03-29T16:43:26.164Z,22.30
2019-03-29T16:45:55.462Z,22.63
2019-03-29T16:48:24.719Z,21.57
2019-03-29T16:50:54.267Z,22.50
2019-03-29T16:53:26.586Z,21.40
2019-03-29T16:55:58.147Z,22.60
2019-03-29T16:58:28.063Z,24.03
2019-03-29T17:00:57.930Z,22.17
2019-03-29T17:03:35.488Z,24.53
2019-03-29T17:06:02.445Z,23.17
2019-03-29T17:08:35.975Z,22.67
2019-03-29T17:11:06.351Z,22.30
2019-03-29T17:13:35.868Z,23.07
2019-03-29T17:16:06.866Z,24.10
2019-03-29T17:18:47.888Z,23.00
2019-03-29T17:21:17.476Z,23.73
2019-03-29T17:23:47.123Z,24.43
2019-03-29T17:26:16.766Z,23.93
2019-03-29T17:28:46.315Z,21.30
2019-03-29T17:31:16.778Z,22.07
2019-03-29T17:33:47.947Z,21.77
2019-03-29T17:36:17.256Z,23.80
2019-03-29T17:38:47.091Z,22.30
2019-03-29T17:41:16.612Z,23.17
2019-03-29T17:43:46.202Z,24.10
2019-03-29T17:46:17.131Z,25.23
2019-03-29T17:48:46.494Z,24.10
2019-03-29T17:51:16.016Z,23.80
2019-03-29T17:53:45.708Z,24.60
2019-03-29T17:56:15.190Z,24.47
2019-03-29T17:58:44.852Z,25.20
2019-03-29T18:01:14.425Z,25.07
2019-03-29T18:03:43.806Z,24.47
2019-03-29T18:06:13.607Z,25.07
2019-03-29T18:08:43.425Z,24.77
2019-03-29T18:11:13.699Z,25.53
2019-03-29T18:13:46.143Z,24.90
2019-03-29T18:16:29.586Z,25.20
2019-03-29T18:18:47.182Z,26.50
2019-03-29T18:21:16.646Z,25.77
2019-03-29T18:23:46.183Z,25.40
2019-03-29T18:26:18.312Z,25.97
2019-03-29T18:28:53.197Z,26.57
2019-03-29T18:31:23.353Z,26.13
2019-03-29T18:33:55.752Z,27.27
2019-03-29T18:36:25.143Z,27.53
2019-03-29T18:38:58.925Z,27.87
2019-03-29T18:41:34.131Z,29.13
2019-03-29T18:44:03.782Z,27.73
2019-03-29T18:46:44.068Z,27.93
2019-03-29T18:49:05.494Z,27.80
2019-03-29T18:51:37.885Z,28.70
2019-03-29T18:54:10.309Z,27.00
2019-03-29T18:56:39.611Z,26.23
2019-03-29T18:59:09.303Z,29.50
2019-03-29T19:01:47.001Z,30.07
2019-03-29T19:04:30.526Z,33.60
2019-03-29T19:07:05.323Z,34.60
2019-03-29T19:09:44.452Z,32.93
2019-03-29T19:12:26.858Z,31.67
2019-03-29T19:15:28.772Z,33.50
2019-03-29T19:18:07.308Z,31.37
2019-03-29T19:20:43.886Z,31.53
2019-03-29T19:23:13.625Z,30.67
2019-03-29T19:25:44.220Z,30.07
2019-03-29T19:28:13.765Z,30.23
2019-03-29T19:30:43.364Z,29.27
2019-03-29T19:33:12.972Z,31.27
2019-03-29T19:35:42.619Z,31.73
2019-03-29T19:38:12.331Z,32.63
2019-03-29T19:40:48.654Z,32.37
2019-03-29T19:43:29.038Z,31.57
2019-03-29T19:45:56.789Z,31.43
2019-03-29T19:48:26.446Z,30.97
2019-03-29T19:50:56.186Z,30.40
2019-03-29T19:53:25.795Z,29.00
2019-03-29T19:55:55.371Z,30.30
2019-03-29T19:58:24.929Z,31.40
2019-03-29T20:00:54.691Z,32.23
2019-03-29T20:03:24.219Z,31.83
2019-03-29T20:05:53.870Z,30.77
2019-03-29T20:08:23.567Z,32.33
2019-03-29T20:10:54.809Z,31.43
2019-03-29T20:13:24.315Z,30.77
2019-03-29T20:15:53.824Z,30.97
2019-03-29T20:18:23.422Z,32.27
2019-03-29T20:20:55.046Z,30.63
2019-03-29T20:23:25.264Z,31.50
2019-03-29T20:25:54.876Z,31.07
2019-03-29T20:28:24.381Z,34.40
2019-03-29T20:30:55.228Z,33.30
2019-03-29T20:33:24.558Z,31.93
2019-03-29T20:35:54.643Z,32.23
2019-03-29T20:38:24.195Z,32.97
2019-03-29T20:40:55.765Z,31.93
2019-03-29T20:43:27.366Z,33.60
2019-03-29T20:45:56.677Z,32.03
2019-03-29T20:48:26.466Z,32.43
2019-03-29T20:50:59.518Z,32.73
2019-03-29T20:53:28.899Z,32.07
2019-03-29T20:55:58.578Z,33.47
2019-03-29T20:58:28.246Z,33.60
2019-03-29T21:00:57.845Z,33.20
2019-03-29T21:03:27.407Z,32.67
2019-03-29T21:05:57.044Z,34.43
2019-03-29T21:08:26.878Z,32.67
2019-03-29T21:10:58.827Z,32.93
2019-03-29T21:13:28.357Z,33.43
2019-03-29T21:15:57.886Z,33.93
2019-03-29T21:18:27.383Z,34.83
2019-03-29T21:20:57.074Z,33.67
2019-03-29T21:23:26.672Z,34.13
2019-03-29T21:25:56.058Z,33.13
2019-03-29T21:28:25.584Z,33.20
2019-03-29T21:30:56.909Z,32.60
2019-03-29T21:33:26.434Z,31.10
2019-03-29T21:35:55.921Z,32.90
2019-03-29T21:38:25.410Z,33.50
2019-03-29T21:40:54.674Z,33.63
2019-03-29T21:43:24.169Z,34.67
2019-03-29T21:45:53.787Z,32.77
2019-03-29T21:48:28.918Z,34.80
2019-03-29T21:50:55.444Z,35.17
2019-03-29T21:53:25.029Z,32.90
2019-03-29T21:55:54.514Z,34.47
2019-03-29T21:58:24.040Z,33.90
2019-03-29T22:00:53.543Z,34.27
2019-03-29T22:03:23.299Z,34.60
2019-03-29T22:05:52.939Z,34.83
2019-03-29T22:08:22.448Z,34.27
2019-03-29T22:10:52.026Z,35.17
2019-03-29T22:13:21.521Z,35.50
2019-03-29T22:15:51.014Z,35.60
2019-03-29T22:18:20.303Z,35.90
2019-03-29T22:20:50.682Z,35.63
2019-03-29T22:23:20.213Z,35.37
2019-03-29T22:25:49.711Z,36.90
2019-03-29T22:28:19.212Z,37.00
2019-03-29T22:30:48.496Z,36.47
2019-03-29T22:33:17.994Z,34.80
2019-03-29T22:35:47.326Z,36.97
2019-03-29T22:38:16.832Z,36.23
2019-03-29T22:40:48.802Z,36.60
2019-03-29T22:43:18.359Z,36.40
2019-03-29T22:45:47.668Z,36.20
2019-03-29T22:48:17.243Z,37.33
2019-03-29T22:50:47.272Z,36.60
2019-03-29T22:53:16.808Z,36.10
2019-03-29T22:55:46.063Z,36.60
2019-03-29T22:58:15.547Z,38.63
2019-03-29T23:00:48.242Z,38.77
2019-03-29T23:03:21.235Z,42.23
2019-03-29T23:05:50.760Z,49.03
2019-03-29T23:08:20.098Z,49.13
2019-03-29T23:10:49.632Z,47.73
2019-03-29T23:13:19.129Z,45.37
2019-03-29T23:15:48.615Z,41.90
2019-03-29T23:18:17.946Z,41.00
2019-03-29T23:20:47.862Z,43.47
2019-03-29T23:23:17.179Z,43.73
2019-03-29T23:25:47.398Z,44.73
2019-03-29T23:28:16.676Z,47.13
2019-03-29T23:30:46.247Z,49.80
2019-03-29T23:33:15.725Z,47.20
2019-03-29T23:35:45.322Z,48.07
2019-03-29T23:38:15.062Z,45.40
2019-03-29T23:40:44.611Z,47.47
2019-03-29T23:43:14.136Z,45.57
2019-03-29T23:45:43.393Z,44.80
2019-03-29T23:48:12.770Z,43.97
2019-03-29T23:50:42.343Z,43.63
2019-03-29T23:53:11.649Z,45.80
2019-03-29T23:55:41.248Z,42.07
2019-03-29T23:58:10.830Z,42.17
